sensor_id;sensor_type;location;lat;lon;timestamp;P1;durP1;ratioP1;P2;durP2;ratioP2
5785;SDS011;2919;48.630;9.000;2024-02-16T00:01:38;6.03;;;2.53;;
5785;SDS011;2919;48.630;9.000;2024-02-16T00:04:03;5.13;;;1.93;;
5785;SDS011;2919;48.630;9.000;2024-02-16T00:06:29;10.20;;;2.33;;
5785;SDS011;2919;48.630;9.000;2024-02-16T00:08:54;2.50;;;1.40;;
5785;SDS011;2919;48.630;9.000;2024-02-16T00:11:20;4.80;;;1.57;;
5785;SDS011;2919;48.630;9.000;2024-02-16T00:13:46;2.77;;;1.70;;
5785;SDS011;2919;48.630;9.000;2024-02-16T00:16:11;4.03;;;1.77;;
5785;SDS011;2919;48.630;9.000;2024-02-16T00:18:37;13.50;;;2.10;;
5785;SDS011;2919;48.630;9.000;2024-02-16T00:21:02;3.87;;;1.60;;
5785;SDS011;2919;48.630;9.000;2024-02-16T00:23:28;6.90;;;2.37;;
5785;SDS011;2919;48.630;9.000;2024-02-16T00:25:54;4.80;;;2.37;;
5785;SDS011;2919;48.630;9.000;2024-02-16T00:28:19;4.07;;;2.10;;
5785;SDS011;2919;48.630;9.000;2024-02-16T00:30:44;4.37;;;2.17;;
5785;SDS011;2919;48.630;9.000;2024-02-16T00:33:12;5.93;;;1.37;;
5785;SDS011;2919;48.630;9.000;2024-02-16T00:35:37;2.40;;;1.23;;
5785;SDS011;2919;48.630;9.000;2024-02-16T00:38:03;2.63;;;1.47;;
5785;SDS011;2919;48.630;9.000;2024-02-16T00:40:28;3.27;;;2.00;;
5785;SDS011;2919;48.630;9.000;2024-02-16T00:42:54;5.80;;;1.83;;
5785;SDS011;2919;48.630;9.000;2024-02-16T00:45:20;4.97;;;2.60;;
5785;SDS011;2919;48.630;9.000;2024-02-16T00:47:45;4.33;;;1.93;;
5785;SDS011;2919;48.630;9.000;2024-02-16T00:50:11;4.53;;;1.70;;
5785;SDS011;2919;48.630;9.000;2024-02-16T00:52:36;2.53;;;1.67;;
5785;SDS011;2919;48.630;9.000;2024-02-16T00:55:03;3.83;;;2.03;;
5785;SDS011;2919;48.630;9.000;2024-02-16T00:57:29;4.50;;;1.80;;
5785;SDS011;2919;48.630;9.000;2024-02-16T00:59:55;9.43;;;1.60;;
5785;SDS011;2919;48.630;9.000;2024-02-16T01:02:20;6.83;;;1.63;;
5785;SDS011;2919;48.630;9.000;2024-02-16T01:04:47;1.67;;;1.07;;
5785;SDS011;2919;48.630;9.000;2024-02-16T01:07:12;1.97;;;1.20;;
5785;SDS011;2919;48.630;9.000;2024-02-16T01:09:38;4.47;;;1.87;;
5785;SDS011;2919;48.630;9.000;2024-02-16T01:12:03;2.90;;;1.40;;
5785;SDS011;2919;48.630;9.000;2024-02-16T01:14:29;2.10;;;1.03;;
5785;SDS011;2919;48.630;9.000;2024-02-16T01:16:55;7.33;;;1.80;;
5785;SDS011;2919;48.630;9.000;2024-02-16T01:19:20;3.13;;;1.40;;
5785;SDS011;2919;48.630;9.000;2024-02-16T01:21:45;5.37;;;1.57;;
5785;SDS011;2919;48.630;9.000;2024-02-16T01:24:17;5.57;;;1.67;;
5785;SDS011;2919;48.630;9.000;2024-02-16T01:26:42;6.27;;;1.87;;
5785;SDS011;2919;48.630;9.000;2024-02-16T01:29:08;2.10;;;1.30;;
5785;SDS011;2919;48.630;9.000;2024-02-16T01:31:33;3.80;;;1.80;;
5785;SDS011;2919;48.630;9.000;2024-02-16T01:34:01;2.27;;;1.30;;
5785;SDS011;2919;48.630;9.000;2024-02-16T01:36:26;2.37;;;1.27;;
5785;SDS011;2919;48.630;9.000;2024-02-16T01:38:52;3.40;;;1.63;;
5785;SDS011;2919;48.630;9.000;2024-02-16T01:41:17;2.50;;;1.27;;
5785;SDS011;2919;48.630;9.000;2024-02-16T01:43:43;3.10;;;1.10;;
5785;SDS011;2919;48.630;9.000;2024-02-16T01:46:08;6.20;;;1.53;;
5785;SDS011;2919;48.630;9.000;2024-02-16T01:48:34;1.90;;;1.23;;
5785;SDS011;2919;48.630;9.000;2024-02-16T01:51:00;3.53;;;1.67;;
5785;SDS011;2919;48.630;9.000;2024-02-16T01:53:27;1.87;;;0.90;;
5785;SDS011;2919;48.630;9.000;2024-02-16T01:55:53;2.87;;;1.60;;
5785;SDS011;2919;48.630;9.000;2024-02-16T01:58:18;5.60;;;1.80;;
5785;SDS011;2919;48.630;9.000;2024-02-16T02:00:44;3.87;;;1.40;;
5785;SDS011;2919;48.630;9.000;2024-02-16T02:03:10;2.57;;;1.57;;
5785;SDS011;2919;48.630;9.000;2024-02-16T02:05:43;2.70;;;1.30;;
5785;SDS011;2919;48.630;9.000;2024-02-16T02:08:10;5.40;;;1.40;;
5785;SDS011;2919;48.630;9.000;2024-02-16T02:10:36;3.30;;;1.60;;
5785;SDS011;2919;48.630;9.000;2024-02-16T02:13:02;2.63;;;1.30;;
5785;SDS011;2919;48.630;9.000;2024-02-16T02:15:27;4.23;;;1.53;;
5785;SDS011;2919;48.630;9.000;2024-02-16T02:17:53;2.40;;;1.27;;
5785;SDS011;2919;48.630;9.000;2024-02-16T02:20:19;10.43;;;1.47;;
5785;SDS011;2919;48.630;9.000;2024-02-16T02:22:44;2.33;;;0.90;;
5785;SDS011;2919;48.630;9.000;2024-02-16T02:25:10;4.77;;;1.87;;
5785;SDS011;2919;48.630;9.000;2024-02-16T02:27:36;5.87;;;1.60;;
5785;SDS011;2919;48.630;9.000;2024-02-16T02:30:02;1.90;;;1.23;;
5785;SDS011;2919;48.630;9.000;2024-02-16T02:32:28;1.97;;;1.20;;
5785;SDS011;2919;48.630;9.000;2024-02-16T02:34:53;3.27;;;1.37;;
5785;SDS011;2919;48.630;9.000;2024-02-16T02:37:19;2.43;;;1.37;;
5785;SDS011;2919;48.630;9.000;2024-02-16T02:39:45;4.90;;;1.77;;
5785;SDS011;2919;48.630;9.000;2024-02-16T02:42:10;1.90;;;1.37;;
5785;SDS011;2919;48.630;9.000;2024-02-16T02:44:36;3.93;;;1.40;;
5785;SDS011;2919;48.630;9.000;2024-02-16T02:47:01;12.90;;;1.40;;
5785;SDS011;2919;48.630;9.000;2024-02-16T02:49:27;2.40;;;1.47;;
5785;SDS011;2919;48.630;9.000;2024-02-16T02:51:52;3.10;;;1.40;;
5785;SDS011;2919;48.630;9.000;2024-02-16T02:54:18;3.20;;;1.70;;
5785;SDS011;2919;48.630;9.000;2024-02-16T02:56:44;3.73;;;1.20;;
5785;SDS011;2919;48.630;9.000;2024-02-16T02:59:09;7.73;;;1.30;;
5785;SDS011;2919;48.630;9.000;2024-02-16T03:01:35;4.07;;;1.70;;
5785;SDS011;2919;48.630;9.000;2024-02-16T03:04:01;2.03;;;1.27;;
5785;SDS011;2919;48.630;9.000;2024-02-16T03:06:27;2.00;;;1.07;;
5785;SDS011;2919;48.630;9.000;2024-02-16T03:08:53;2.07;;;1.10;;
5785;SDS011;2919;48.630;9.000;2024-02-16T03:11:19;6.60;;;1.87;;
5785;SDS011;2919;48.630;9.000;2024-02-16T03:13:45;2.63;;;1.03;;
5785;SDS011;2919;48.630;9.000;2024-02-16T03:16:11;2.77;;;1.00;;
5785;SDS011;2919;48.630;9.000;2024-02-16T03:18:36;1.67;;;0.70;;
5785;SDS011;2919;48.630;9.000;2024-02-16T03:21:02;2.97;;;1.40;;
5785;SDS011;2919;48.630;9.000;2024-02-16T03:23:27;4.27;;;1.40;;
5785;SDS011;2919;48.630;9.000;2024-02-16T03:25:53;5.30;;;1.90;;
5785;SDS011;2919;48.630;9.000;2024-02-16T03:28:19;7.60;;;2.00;;
5785;SDS011;2919;48.630;9.000;2024-02-16T03:30:45;3.13;;;1.50;;
5785;SDS011;2919;48.630;9.000;2024-02-16T03:33:11;2.93;;;1.60;;
5785;SDS011;2919;48.630;9.000;2024-02-16T03:35:38;2.63;;;1.40;;
5785;SDS011;2919;48.630;9.000;2024-02-16T03:38:04;3.27;;;1.70;;
5785;SDS011;2919;48.630;9.000;2024-02-16T03:40:30;4.23;;;1.93;;
5785;SDS011;2919;48.630;9.000;2024-02-16T03:42:55;3.07;;;1.67;;
5785;SDS011;2919;48.630;9.000;2024-02-16T03:45:21;5.97;;;1.87;;
5785;SDS011;2919;48.630;9.000;2024-02-16T03:47:48;4.93;;;1.57;;
5785;SDS011;2919;48.630;9.000;2024-02-16T03:50:13;4.20;;;1.97;;
5785;SDS011;2919;48.630;9.000;2024-02-16T03:52:39;3.23;;;1.67;;
5785;SDS011;2919;48.630;9.000;2024-02-16T03:55:05;4.20;;;1.93;;
5785;SDS011;2919;48.630;9.000;2024-02-16T03:57:31;4.47;;;1.47;;
5785;SDS011;2919;48.630;9.000;2024-02-16T03:59:56;4.53;;;1.83;;
5785;SDS011;2919;48.630;9.000;2024-02-16T04:02:22;5.43;;;2.23;;
5785;SDS011;2919;48.630;9.000;2024-02-16T04:04:47;4.03;;;1.83;;
5785;SDS011;2919;48.630;9.000;2024-02-16T04:07:13;3.20;;;1.70;;
5785;SDS011;2919;48.630;9.000;2024-02-16T04:09:39;4.53;;;1.97;;
5785;SDS011;2919;48.630;9.000;2024-02-16T04:12:05;5.30;;;2.00;;
5785;SDS011;2919;48.630;9.000;2024-02-16T04:14:31;4.50;;;1.70;;
5785;SDS011;2919;48.630;9.000;2024-02-16T04:16:57;3.17;;;1.97;;
5785;SDS011;2919;48.630;9.000;2024-02-16T04:19:23;4.27;;;1.70;;
5785;SDS011;2919;48.630;9.000;2024-02-16T04:21:50;4.63;;;1.93;;
5785;SDS011;2919;48.630;9.000;2024-02-16T04:24:15;3.33;;;1.47;;
5785;SDS011;2919;48.630;9.000;2024-02-16T04:26:41;3.97;;;2.30;;
5785;SDS011;2919;48.630;9.000;2024-02-16T04:29:06;4.17;;;1.80;;
5785;SDS011;2919;48.630;9.000;2024-02-16T04:31:32;4.23;;;2.17;;
5785;SDS011;2919;48.630;9.000;2024-02-16T04:33:57;4.37;;;1.83;;
5785;SDS011;2919;48.630;9.000;2024-02-16T04:36:23;2.70;;;1.60;;
5785;SDS011;2919;48.630;9.000;2024-02-16T04:38:48;4.90;;;1.70;;
5785;SDS011;2919;48.630;9.000;2024-02-16T04:41:14;3.53;;;1.90;;
5785;SDS011;2919;48.630;9.000;2024-02-16T04:43:40;4.90;;;2.00;;
5785;SDS011;2919;48.630;9.000;2024-02-16T04:46:06;3.63;;;1.40;;
5785;SDS011;2919;48.630;9.000;2024-02-16T04:48:31;3.30;;;1.80;;
5785;SDS011;2919;48.630;9.000;2024-02-16T04:50:59;3.00;;;1.73;;
5785;SDS011;2919;48.630;9.000;2024-02-16T04:53:24;5.23;;;1.40;;
5785;SDS011;2919;48.630;9.000;2024-02-16T04:55:50;4.50;;;1.63;;
5785;SDS011;2919;48.630;9.000;2024-02-16T04:58:15;5.23;;;2.33;;
5785;SDS011;2919;48.630;9.000;2024-02-16T05:00:41;5.33;;;1.70;;
5785;SDS011;2919;48.630;9.000;2024-02-16T05:03:07;3.60;;;1.90;;
5785;SDS011;2919;48.630;9.000;2024-02-16T05:05:32;6.10;;;1.60;;
5785;SDS011;2919;48.630;9.000;2024-02-16T05:07:58;3.00;;;1.43;;
5785;SDS011;2919;48.630;9.000;2024-02-16T05:10:24;5.80;;;1.50;;
5785;SDS011;2919;48.630;9.000;2024-02-16T05:12:49;2.43;;;1.10;;
5785;SDS011;2919;48.630;9.000;2024-02-16T05:15:15;5.67;;;1.83;;
5785;SDS011;2919;48.630;9.000;2024-02-16T05:17:42;2.40;;;1.60;;
5785;SDS011;2919;48.630;9.000;2024-02-16T05:20:10;5.40;;;1.50;;
5785;SDS011;2919;48.630;9.000;2024-02-16T05:22:40;3.10;;;1.40;;
5785;SDS011;2919;48.630;9.000;2024-02-16T05:25:10;5.07;;;2.00;;
5785;SDS011;2919;48.630;9.000;2024-02-16T05:27:39;3.83;;;1.83;;
5785;SDS011;2919;48.630;9.000;2024-02-16T05:30:05;4.20;;;1.40;;
5785;SDS011;2919;48.630;9.000;2024-02-16T05:32:36;7.00;;;1.57;;
5785;SDS011;2919;48.630;9.000;2024-02-16T05:35:03;3.80;;;1.70;;
5785;SDS011;2919;48.630;9.000;2024-02-16T05:37:43;2.00;;;1.33;;
5785;SDS011;2919;48.630;9.000;2024-02-16T05:40:12;3.33;;;1.40;;
5785;SDS011;2919;48.630;9.000;2024-02-16T05:42:47;7.90;;;2.20;;
5785;SDS011;2919;48.630;9.000;2024-02-16T05:45:16;4.63;;;1.60;;
5785;SDS011;2919;48.630;9.000;2024-02-16T05:47:42;4.17;;;1.43;;
5785;SDS011;2919;48.630;9.000;2024-02-16T05:50:10;2.77;;;1.60;;
5785;SDS011;2919;48.630;9.000;2024-02-16T05:52:37;4.10;;;1.50;;
5785;SDS011;2919;48.630;9.000;2024-02-16T05:55:03;5.97;;;1.83;;
5785;SDS011;2919;48.630;9.000;2024-02-16T05:57:29;2.90;;;1.50;;
5785;SDS011;2919;48.630;9.000;2024-02-16T05:59:54;3.43;;;1.23;;
5785;SDS011;2919;48.630;9.000;2024-02-16T06:02:20;2.50;;;0.90;;
5785;SDS011;2919;48.630;9.000;2024-02-16T06:04:46;6.33;;;1.87;;
5785;SDS011;2919;48.630;9.000;2024-02-16T06:07:11;5.47;;;1.83;;
5785;SDS011;2919;48.630;9.000;2024-02-16T06:09:37;6.50;;;1.23;;
5785;SDS011;2919;48.630;9.000;2024-02-16T06:12:03;4.37;;;1.43;;
5785;SDS011;2919;48.630;9.000;2024-02-16T06:14:30;4.00;;;1.37;;
5785;SDS011;2919;48.630;9.000;2024-02-16T06:16:56;6.83;;;1.90;;
5785;SDS011;2919;48.630;9.000;2024-02-16T06:19:22;3.00;;;1.43;;
5785;SDS011;2919;48.630;9.000;2024-02-16T06:21:47;2.50;;;1.40;;
5785;SDS011;2919;48.630;9.000;2024-02-16T06:24:13;4.23;;;1.60;;
5785;SDS011;2919;48.630;9.000;2024-02-16T06:26:38;2.73;;;1.73;;
5785;SDS011;2919;48.630;9.000;2024-02-16T06:29:03;2.00;;;1.07;;
5785;SDS011;2919;48.630;9.000;2024-02-16T06:31:29;4.13;;;1.40;;
5785;SDS011;2919;48.630;9.000;2024-02-16T06:33:54;3.20;;;1.40;;
5785;SDS011;2919;48.630;9.000;2024-02-16T06:36:20;4.80;;;1.70;;
5785;SDS011;2919;48.630;9.000;2024-02-16T06:38:47;3.63;;;1.73;;
5785;SDS011;2919;48.630;9.000;2024-02-16T06:41:12;4.17;;;1.80;;
5785;SDS011;2919;48.630;9.000;2024-02-16T06:43:38;3.33;;;1.37;;
5785;SDS011;2919;48.630;9.000;2024-02-16T06:46:03;3.03;;;1.70;;
5785;SDS011;2919;48.630;9.000;2024-02-16T06:48:30;3.73;;;1.70;;
5785;SDS011;2919;48.630;9.000;2024-02-16T06:50:55;4.10;;;1.60;;
5785;SDS011;2919;48.630;9.000;2024-02-16T06:53:23;3.60;;;2.03;;
5785;SDS011;2919;48.630;9.000;2024-02-16T06:55:48;2.67;;;1.43;;
5785;SDS011;2919;48.630;9.000;2024-02-16T06:58:15;2.33;;;1.53;;
5785;SDS011;2919;48.630;9.000;2024-02-16T07:00:40;5.00;;;1.50;;
5785;SDS011;2919;48.630;9.000;2024-02-16T07:03:07;8.83;;;1.93;;
5785;SDS011;2919;48.630;9.000;2024-02-16T07:05:33;7.00;;;2.03;;
5785;SDS011;2919;48.630;9.000;2024-02-16T07:07:59;3.33;;;1.37;;
5785;SDS011;2919;48.630;9.000;2024-02-16T07:10:24;3.63;;;1.40;;
5785;SDS011;2919;48.630;9.000;2024-02-16T07:12:50;3.53;;;1.43;;
5785;SDS011;2919;48.630;9.000;2024-02-16T07:15:15;1.80;;;1.10;;
5785;SDS011;2919;48.630;9.000;2024-02-16T07:17:41;3.63;;;1.40;;
5785;SDS011;2919;48.630;9.000;2024-02-16T07:20:06;3.50;;;1.60;;
5785;SDS011;2919;48.630;9.000;2024-02-16T07:22:32;2.57;;;1.40;;
5785;SDS011;2919;48.630;9.000;2024-02-16T07:24:58;1.70;;;1.00;;
5785;SDS011;2919;48.630;9.000;2024-02-16T07:27:28;2.80;;;1.47;;
5785;SDS011;2919;48.630;9.000;2024-02-16T07:29:53;4.20;;;1.50;;
5785;SDS011;2919;48.630;9.000;2024-02-16T07:32:19;10.20;;;1.63;;
5785;SDS011;2919;48.630;9.000;2024-02-16T07:34:47;3.40;;;1.40;;
5785;SDS011;2919;48.630;9.000;2024-02-16T07:37:13;3.83;;;1.40;;
5785;SDS011;2919;48.630;9.000;2024-02-16T07:39:41;3.73;;;1.50;;
5785;SDS011;2919;48.630;9.000;2024-02-16T07:42:06;6.27;;;2.60;;
5785;SDS011;2919;48.630;9.000;2024-02-16T07:44:34;3.57;;;2.10;;
5785;SDS011;2919;48.630;9.000;2024-02-16T07:47:00;2.07;;;1.10;;
5785;SDS011;2919;48.630;9.000;2024-02-16T07:49:26;3.10;;;1.67;;
5785;SDS011;2919;48.630;9.000;2024-02-16T07:51:52;3.93;;;1.60;;
5785;SDS011;2919;48.630;9.000;2024-02-16T07:54:17;2.40;;;1.37;;
5785;SDS011;2919;48.630;9.000;2024-02-16T07:56:42;3.30;;;1.43;;
5785;SDS011;2919;48.630;9.000;2024-02-16T07:59:08;7.07;;;1.17;;
5785;SDS011;2919;48.630;9.000;2024-02-16T08:01:33;2.33;;;0.97;;
5785;SDS011;2919;48.630;9.000;2024-02-16T08:03:59;4.43;;;1.87;;
5785;SDS011;2919;48.630;9.000;2024-02-16T08:06:26;2.40;;;1.37;;
5785;SDS011;2919;48.630;9.000;2024-02-16T08:08:52;2.63;;;1.37;;
5785;SDS011;2919;48.630;9.000;2024-02-16T08:11:17;2.43;;;1.47;;
5785;SDS011;2919;48.630;9.000;2024-02-16T08:13:43;3.77;;;1.43;;
5785;SDS011;2919;48.630;9.000;2024-02-16T08:16:09;4.13;;;1.67;;
5785;SDS011;2919;48.630;9.000;2024-02-16T08:18:35;2.37;;;0.93;;
5785;SDS011;2919;48.630;9.000;2024-02-16T08:21:00;5.10;;;2.03;;
5785;SDS011;2919;48.630;9.000;2024-02-16T08:23:26;2.90;;;1.23;;
5785;SDS011;2919;48.630;9.000;2024-02-16T08:25:51;4.10;;;1.63;;
5785;SDS011;2919;48.630;9.000;2024-02-16T08:28:17;4.30;;;1.27;;
5785;SDS011;2919;48.630;9.000;2024-02-16T08:30:45;4.63;;;1.63;;
5785;SDS011;2919;48.630;9.000;2024-02-16T08:33:11;3.07;;;1.47;;
5785;SDS011;2919;48.630;9.000;2024-02-16T08:35:37;3.90;;;1.20;;
5785;SDS011;2919;48.630;9.000;2024-02-16T08:38:04;2.20;;;0.97;;
5785;SDS011;2919;48.630;9.000;2024-02-16T08:40:29;1.67;;;1.03;;
5785;SDS011;2919;48.630;9.000;2024-02-16T08:42:55;3.13;;;1.27;;
5785;SDS011;2919;48.630;9.000;2024-02-16T08:45:20;2.13;;;0.93;;
5785;SDS011;2919;48.630;9.000;2024-02-16T08:47:46;2.43;;;0.93;;
5785;SDS011;2919;48.630;9.000;2024-02-16T08:50:11;3.10;;;1.20;;
5785;SDS011;2919;48.630;9.000;2024-02-16T08:52:37;2.10;;;0.97;;
5785;SDS011;2919;48.630;9.000;2024-02-16T08:55:03;3.50;;;1.33;;
5785;SDS011;2919;48.630;9.000;2024-02-16T08:57:29;2.67;;;1.23;;
5785;SDS011;2919;48.630;9.000;2024-02-16T08:59:56;2.03;;;1.00;;
5785;SDS011;2919;48.630;9.000;2024-02-16T09:02:21;3.50;;;1.20;;
5785;SDS011;2919;48.630;9.000;2024-02-16T09:04:47;3.73;;;1.27;;
5785;SDS011;2919;48.630;9.000;2024-02-16T09:07:13;2.53;;;1.47;;
5785;SDS011;2919;48.630;9.000;2024-02-16T09:09:38;3.20;;;1.67;;
5785;SDS011;2919;48.630;9.000;2024-02-16T09:12:04;3.90;;;1.87;;
5785;SDS011;2919;48.630;9.000;2024-02-16T09:14:30;2.60;;;1.20;;
5785;SDS011;2919;48.630;9.000;2024-02-16T09:16:57;3.57;;;1.23;;
5785;SDS011;2919;48.630;9.000;2024-02-16T09:19:22;3.43;;;1.07;;
5785;SDS011;2919;48.630;9.000;2024-02-16T09:21:48;2.73;;;1.13;;
5785;SDS011;2919;48.630;9.000;2024-02-16T09:24:16;2.63;;;1.47;;
5785;SDS011;2919;48.630;9.000;2024-02-16T09:26:43;2.30;;;0.90;;
5785;SDS011;2919;48.630;9.000;2024-02-16T09:29:11;7.27;;;1.17;;
5785;SDS011;2919;48.630;9.000;2024-02-16T09:31:42;3.10;;;0.97;;
5785;SDS011;2919;48.630;9.000;2024-02-16T09:34:08;4.80;;;1.53;;
5785;SDS011;2919;48.630;9.000;2024-02-16T09:36:34;6.03;;;1.20;;
5785;SDS011;2919;48.630;9.000;2024-02-16T09:39:01;2.17;;;1.10;;
5785;SDS011;2919;48.630;9.000;2024-02-16T09:41:27;1.70;;;1.00;;
5785;SDS011;2919;48.630;9.000;2024-02-16T09:43:53;2.73;;;1.10;;
5785;SDS011;2919;48.630;9.000;2024-02-16T09:46:19;2.10;;;1.27;;
5785;SDS011;2919;48.630;9.000;2024-02-16T09:48:46;2.10;;;1.43;;
5785;SDS011;2919;48.630;9.000;2024-02-16T09:51:17;2.60;;;1.07;;
5785;SDS011;2919;48.630;9.000;2024-02-16T09:53:43;3.23;;;0.93;;
5785;SDS011;2919;48.630;9.000;2024-02-16T09:56:14;3.93;;;0.93;;
5785;SDS011;2919;48.630;9.000;2024-02-16T09:58:40;2.73;;;0.90;;
5785;SDS011;2919;48.630;9.000;2024-02-16T10:01:05;5.27;;;1.47;;
5785;SDS011;2919;48.630;9.000;2024-02-16T10:03:31;1.57;;;0.77;;
5785;SDS011;2919;48.630;9.000;2024-02-16T10:06:12;2.33;;;1.20;;
5785;SDS011;2919;48.630;9.000;2024-02-16T10:08:46;3.10;;;1.30;;
5785;SDS011;2919;48.630;9.000;2024-02-16T10:11:16;5.23;;;1.43;;
5785;SDS011;2919;48.630;9.000;2024-02-16T10:13:53;3.83;;;1.43;;
5785;SDS011;2919;48.630;9.000;2024-02-16T10:16:22;8.13;;;1.80;;
5785;SDS011;2919;48.630;9.000;2024-02-16T10:18:48;2.57;;;1.30;;
5785;SDS011;2919;48.630;9.000;2024-02-16T10:21:13;4.30;;;1.50;;
5785;SDS011;2919;48.630;9.000;2024-02-16T10:24:01;3.10;;;1.43;;
5785;SDS011;2919;48.630;9.000;2024-02-16T10:26:33;3.20;;;1.50;;
5785;SDS011;2919;48.630;9.000;2024-02-16T10:29:02;3.70;;;1.30;;
5785;SDS011;2919;48.630;9.000;2024-02-16T10:31:29;5.90;;;2.00;;
5785;SDS011;2919;48.630;9.000;2024-02-16T10:33:57;4.40;;;1.33;;
5785;SDS011;2919;48.630;9.000;2024-02-16T10:36:25;3.10;;;1.53;;
5785;SDS011;2919;48.630;9.000;2024-02-16T10:38:53;7.00;;;1.40;;
5785;SDS011;2919;48.630;9.000;2024-02-16T10:41:20;9.80;;;1.70;;
5785;SDS011;2919;48.630;9.000;2024-02-16T10:43:51;2.30;;;1.17;;
5785;SDS011;2919;48.630;9.000;2024-02-16T10:46:19;12.63;;;1.10;;
5785;SDS011;2919;48.630;9.000;2024-02-16T10:48:45;4.27;;;1.57;;
5785;SDS011;2919;48.630;9.000;2024-02-16T10:51:10;5.00;;;1.60;;
5785;SDS011;2919;48.630;9.000;2024-02-16T10:53:38;6.97;;;2.60;;
5785;SDS011;2919;48.630;9.000;2024-02-16T10:56:06;3.50;;;1.80;;
5785;SDS011;2919;48.630;9.000;2024-02-16T10:58:32;6.27;;;2.20;;
5785;SDS011;2919;48.630;9.000;2024-02-16T11:01:06;4.73;;;2.27;;
5785;SDS011;2919;48.630;9.000;2024-02-16T11:03:37;4.90;;;2.10;;
5785;SDS011;2919;48.630;9.000;2024-02-16T11:06:11;9.03;;;2.93;;
5785;SDS011;2919;48.630;9.000;2024-02-16T11:08:41;3.63;;;1.50;;
5785;SDS011;2919;48.630;9.000;2024-02-16T11:11:07;6.73;;;3.97;;
5785;SDS011;2919;48.630;9.000;2024-02-16T11:13:36;14.53;;;4.53;;
5785;SDS011;2919;48.630;9.000;2024-02-16T11:16:03;5.37;;;1.30;;
5785;SDS011;2919;48.630;9.000;2024-02-16T11:18:32;3.67;;;1.33;;
5785;SDS011;2919;48.630;9.000;2024-02-16T11:21:02;3.60;;;1.10;;
5785;SDS011;2919;48.630;9.000;2024-02-16T11:23:31;5.40;;;1.33;;
5785;SDS011;2919;48.630;9.000;2024-02-16T11:25:59;22.60;;;1.73;;
5785;SDS011;2919;48.630;9.000;2024-02-16T11:28:32;4.80;;;1.47;;
5785;SDS011;2919;48.630;9.000;2024-02-16T11:30:59;3.20;;;0.93;;
5785;SDS011;2919;48.630;9.000;2024-02-16T11:33:26;2.50;;;1.33;;
5785;SDS011;2919;48.630;9.000;2024-02-16T11:35:55;1.50;;;0.83;;
5785;SDS011;2919;48.630;9.000;2024-02-16T11:38:22;2.93;;;1.50;;
5785;SDS011;2919;48.630;9.000;2024-02-16T11:40:55;3.90;;;1.67;;
5785;SDS011;2919;48.630;9.000;2024-02-16T11:43:25;5.83;;;0.80;;
5785;SDS011;2919;48.630;9.000;2024-02-16T11:45:51;3.87;;;1.13;;
5785;SDS011;2919;48.630;9.000;2024-02-16T11:48:24;1.93;;;1.13;;
5785;SDS011;2919;48.630;9.000;2024-02-16T11:50:58;2.80;;;1.33;;
5785;SDS011;2919;48.630;9.000;2024-02-16T11:53:26;2.23;;;1.10;;
5785;SDS011;2919;48.630;9.000;2024-02-16T11:55:52;2.10;;;1.13;;
5785;SDS011;2919;48.630;9.000;2024-02-16T11:58:18;2.30;;;1.30;;
5785;SDS011;2919;48.630;9.000;2024-02-16T12:00:47;2.73;;;1.50;;
5785;SDS011;2919;48.630;9.000;2024-02-16T12:03:23;3.30;;;1.80;;
5785;SDS011;2919;48.630;9.000;2024-02-16T12:05:56;4.53;;;1.77;;
5785;SDS011;2919;48.630;9.000;2024-02-16T12:08:23;5.20;;;1.63;;
5785;SDS011;2919;48.630;9.000;2024-02-16T12:10:49;2.27;;;1.10;;
5785;SDS011;2919;48.630;9.000;2024-02-16T12:13:19;4.33;;;1.60;;
5785;SDS011;2919;48.630;9.000;2024-02-16T12:15:45;8.40;;;1.43;;
5785;SDS011;2919;48.630;9.000;2024-02-16T12:18:18;5.20;;;1.37;;
5785;SDS011;2919;48.630;9.000;2024-02-16T12:20:57;2.50;;;1.40;;
5785;SDS011;2919;48.630;9.000;2024-02-16T12:23:32;2.20;;;1.40;;
5785;SDS011;2919;48.630;9.000;2024-02-16T12:25:59;3.07;;;1.43;;
5785;SDS011;2919;48.630;9.000;2024-02-16T12:28:25;3.00;;;1.27;;
5785;SDS011;2919;48.630;9.000;2024-02-16T12:30:57;3.83;;;1.83;;
5785;SDS011;2919;48.630;9.000;2024-02-16T12:33:23;4.07;;;1.33;;
5785;SDS011;2919;48.630;9.000;2024-02-16T12:35:48;1.97;;;1.20;;
5785;SDS011;2919;48.630;9.000;2024-02-16T12:38:14;3.83;;;1.50;;
5785;SDS011;2919;48.630;9.000;2024-02-16T12:40:42;3.40;;;1.77;;
5785;SDS011;2919;48.630;9.000;2024-02-16T12:43:11;2.20;;;1.10;;
5785;SDS011;2919;48.630;9.000;2024-02-16T12:45:38;3.67;;;1.07;;
5785;SDS011;2919;48.630;9.000;2024-02-16T12:48:04;4.63;;;1.60;;
5785;SDS011;2919;48.630;9.000;2024-02-16T12:50:30;7.13;;;1.80;;
5785;SDS011;2919;48.630;9.000;2024-02-16T12:52:56;2.90;;;1.63;;
5785;SDS011;2919;48.630;9.000;2024-02-16T12:55:23;3.40;;;1.60;;
5785;SDS011;2919;48.630;9.000;2024-02-16T12:57:49;3.73;;;1.93;;
5785;SDS011;2919;48.630;9.000;2024-02-16T13:00:16;7.47;;;1.97;;
5785;SDS011;2919;48.630;9.000;2024-02-16T13:02:42;3.37;;;1.27;;
5785;SDS011;2919;48.630;9.000;2024-02-16T13:05:07;2.90;;;1.40;;
5785;SDS011;2919;48.630;9.000;2024-02-16T13:07:33;2.87;;;1.47;;
5785;SDS011;2919;48.630;9.000;2024-02-16T13:09:59;4.60;;;1.43;;
5785;SDS011;2919;48.630;9.000;2024-02-16T13:12:24;3.73;;;1.57;;
5785;SDS011;2919;48.630;9.000;2024-02-16T13:14:50;3.20;;;1.50;;
5785;SDS011;2919;48.630;9.000;2024-02-16T13:17:15;3.20;;;1.50;;
5785;SDS011;2919;48.630;9.000;2024-02-16T13:19:41;5.70;;;1.60;;
5785;SDS011;2919;48.630;9.000;2024-02-16T13:22:07;4.50;;;1.60;;
5785;SDS011;2919;48.630;9.000;2024-02-16T13:24:32;8.93;;;3.93;;
5785;SDS011;2919;48.630;9.000;2024-02-16T13:26:58;8.30;;;5.07;;
5785;SDS011;2919;48.630;9.000;2024-02-16T13:29:24;22.20;;;8.57;;
5785;SDS011;2919;48.630;9.000;2024-02-16T13:31:49;6.67;;;3.70;;
5785;SDS011;2919;48.630;9.000;2024-02-16T13:34:15;13.67;;;7.17;;
5785;SDS011;2919;48.630;9.000;2024-02-16T13:36:41;12.27;;;5.17;;
5785;SDS011;2919;48.630;9.000;2024-02-16T13:39:06;14.73;;;7.00;;
5785;SDS011;2919;48.630;9.000;2024-02-16T13:41:33;14.13;;;7.20;;
5785;SDS011;2919;48.630;9.000;2024-02-16T13:43:58;6.73;;;3.07;;
5785;SDS011;2919;48.630;9.000;2024-02-16T13:46:24;8.40;;;3.37;;
5785;SDS011;2919;48.630;9.000;2024-02-16T13:48:49;4.90;;;2.17;;
5785;SDS011;2919;48.630;9.000;2024-02-16T13:51:15;4.37;;;2.00;;
5785;SDS011;2919;48.630;9.000;2024-02-16T13:53:40;7.63;;;1.50;;
5785;SDS011;2919;48.630;9.000;2024-02-16T13:56:06;3.43;;;1.80;;
5785;SDS011;2919;48.630;9.000;2024-02-16T13:58:31;3.47;;;1.60;;
5785;SDS011;2919;48.630;9.000;2024-02-16T14:00:59;4.07;;;1.27;;
5785;SDS011;2919;48.630;9.000;2024-02-16T14:03:25;3.13;;;1.73;;
5785;SDS011;2919;48.630;9.000;2024-02-16T14:05:50;4.90;;;1.97;;
5785;SDS011;2919;48.630;9.000;2024-02-16T14:08:17;7.70;;;2.23;;
5785;SDS011;2919;48.630;9.000;2024-02-16T14:10:42;4.40;;;1.47;;
5785;SDS011;2919;48.630;9.000;2024-02-16T14:13:08;6.20;;;1.90;;
5785;SDS011;2919;48.630;9.000;2024-02-16T14:15:34;8.63;;;1.73;;
5785;SDS011;2919;48.630;9.000;2024-02-16T14:18:00;4.23;;;1.67;;
5785;SDS011;2919;48.630;9.000;2024-02-16T14:20:25;3.30;;;1.00;;
5785;SDS011;2919;48.630;9.000;2024-02-16T14:22:51;3.67;;;1.43;;
5785;SDS011;2919;48.630;9.000;2024-02-16T14:25:16;2.63;;;1.37;;
5785;SDS011;2919;48.630;9.000;2024-02-16T14:27:43;1.87;;;1.03;;
5785;SDS011;2919;48.630;9.000;2024-02-16T14:30:10;2.53;;;1.40;;
5785;SDS011;2919;48.630;9.000;2024-02-16T14:32:36;3.73;;;1.20;;
5785;SDS011;2919;48.630;9.000;2024-02-16T14:35:02;4.20;;;1.63;;
5785;SDS011;2919;48.630;9.000;2024-02-16T14:37:28;5.57;;;1.30;;
5785;SDS011;2919;48.630;9.000;2024-02-16T14:39:54;4.40;;;1.70;;
5785;SDS011;2919;48.630;9.000;2024-02-16T14:42:23;2.20;;;1.03;;
5785;SDS011;2919;48.630;9.000;2024-02-16T14:44:49;2.73;;;1.27;;
5785;SDS011;2919;48.630;9.000;2024-02-16T14:47:14;7.23;;;1.70;;
5785;SDS011;2919;48.630;9.000;2024-02-16T14:49:40;11.70;;;1.83;;
5785;SDS011;2919;48.630;9.000;2024-02-16T14:52:05;5.00;;;1.60;;
5785;SDS011;2919;48.630;9.000;2024-02-16T14:54:32;2.43;;;1.47;;
5785;SDS011;2919;48.630;9.000;2024-02-16T14:56:57;5.53;;;1.33;;
5785;SDS011;2919;48.630;9.000;2024-02-16T14:59:23;3.17;;;0.97;;
5785;SDS011;2919;48.630;9.000;2024-02-16T15:01:49;5.37;;;1.60;;
5785;SDS011;2919;48.630;9.000;2024-02-16T15:04:16;2.50;;;1.03;;
5785;SDS011;2919;48.630;9.000;2024-02-16T15:06:42;5.93;;;1.97;;
5785;SDS011;2919;48.630;9.000;2024-02-16T15:09:08;3.57;;;2.00;;
5785;SDS011;2919;48.630;9.000;2024-02-16T15:11:35;9.03;;;2.20;;